Time;durP1;ratioP1;P1;durP2;ratioP2;P2;SDS_P1;SDS_P2;PMS_P1;PMS_P2;Temp;Humidity;BMP_temperature;BMP_pressure;BME280_temperature;BME280_humidity;BME280_pressure;Samples;Min_cycle;Max_cycle;Signal;HPM_P1;HPM_P2
2021/09/11 00:00:31;;;;;;;14.75;10.25;;;22.40;43.70;;;;;;4165278;28;20040;-57
2021/09/11 00:02:33;;;;;;;14.80;9.25;;;22.40;43.60;;;;;;4164987;28;20037;-57
2021/09/11 00:04:36;;;;;;;14.57;9.05;;;22.40;43.70;;;;;;4165181;28;20384;-57
2021/09/11 00:06:38;;;;;;;13.60;8.77;;;22.40;43.80;;;;;;4164969;28;20094;-57
2021/09/11 00:08:40;;;;;;;11.95;8.02;;;22.40;43.90;;;;;;4165084;28;20491;-58
2021/09/11 00:10:42;;;;;;;14.40;8.23;;;22.40;43.80;;;;;;4165205;28;20042;-57
2021/09/11 00:12:45;;;;;;;13.70;7.70;;;22.40;43.80;;;;;;4165075;28;20093;-58
2021/09/11 00:14:48;;;;;;;16.33;8.40;;;22.40;43.70;;;;;;4165006;28;20076;-58
2021/09/11 00:16:50;;;;;;;13.38;6.97;;;22.40;43.80;;;;;;4165036;28;20037;-57
2021/09/11 00:18:52;;;;;;;11.88;7.95;;;22.40;43.80;;;;;;4164215;28;20038;-57
2021/09/11 00:20:54;;;;;;;11.20;7.80;;;22.40;43.50;;;;;;4164980;28;20045;-57
2021/09/11 00:22:57;;;;;;;14.40;7.82;;;22.40;43.70;;;;;;4165034;28;20065;-58
2021/09/11 00:24:59;;;;;;;12.13;8.38;;;22.40;43.90;;;;;;4164990;28;20101;-58
2021/09/11 00:27:01;;;;;;;20.83;8.73;;;22.40;43.70;;;;;;4164870;28;20072;-58
2021/09/11 00:29:03;;;;;;;12.80;7.55;;;22.40;43.60;;;;;;4166286;28;20038;-58
2021/09/11 00:31:07;;;;;;;15.50;7.35;;;22.40;43.40;;;;;;4168090;28;20580;-58
2021/09/11 00:33:09;;;;;;;13.23;7.90;;;22.40;43.50;;;;;;4168130;28;20125;-58
2021/09/11 00:35:14;;;;;;;14.80;7.40;;;22.30;43.80;;;;;;4168117;28;20077;-57
2021/09/11 00:37:16;;;;;;;11.13;7.40;;;22.40;43.40;;;;;;4168129;28;20049;-57
2021/09/11 00:39:18;;;;;;;10.43;7.75;;;22.40;43.50;;;;;;4165915;28;20106;-57
2021/09/11 00:41:20;;;;;;;16.80;7.25;;;22.40;43.50;;;;;;4167765;28;20046;-57
2021/09/11 00:43:23;;;;;;;15.55;7.35;;;22.30;43.30;;;;;;4167908;28;20048;-57
2021/09/11 00:45:25;;;;;;;10.60;6.95;;;22.30;43.50;;;;;;4167889;28;20046;-57
2021/09/11 00:47:27;;;;;;;8.50;7.07;;;22.30;43.40;;;;;;4167904;28;20098;-57
2021/09/11 00:49:29;;;;;;;13.35;7.57;;;22.30;43.50;;;;;;4167802;28;20042;-57
2021/09/11 00:51:31;;;;;;;15.75;6.53;;;22.30;43.50;;;;;;4167579;28;20118;-58
2021/09/11 00:53:34;;;;;;;15.40;7.53;;;22.30;43.70;;;;;;4167775;28;20073;-57
2021/09/11 00:55:37;;;;;;;13.00;6.35;;;22.30;43.50;;;;;;4167675;28;20110;-57
2021/09/11 00:57:44;;;;;;;13.13;7.68;;;22.30;43.50;;;;;;4166897;28;20045;-57
2021/09/11 00:59:46;;;;;;;12.30;7.00;;;22.30;43.60;;;;;;4167629;28;20097;-57
2021/09/11 01:01:48;;;;;;;10.90;7.28;;;22.30;43.70;;;;;;4167609;28;20056;-63
2021/09/11 01:03:51;;;;;;;13.45;7.32;;;22.30;43.50;;;;;;4167631;28;20042;-57
2021/09/11 01:05:53;;;;;;;9.50;6.50;;;22.30;43.60;;;;;;4182997;28;20079;-58
2021/09/11 01:07:55;;;;;;;12.57;6.80;;;22.30;43.60;;;;;;4167563;28;20093;-58
2021/09/11 01:09:59;;;;;;;12.20;7.32;;;22.30;43.60;;;;;;4167512;28;20116;-57
2021/09/11 01:12:01;;;;;;;13.60;6.70;;;22.30;43.40;;;;;;4167467;28;20080;-57
2021/09/11 01:14:03;;;;;;;17.10;6.75;;;22.30;43.50;;;;;;4183028;28;20041;-57
2021/09/11 01:16:06;;;;;;;11.93;7.25;;;22.30;43.50;;;;;;4167444;28;20101;-57
2021/09/11 01:18:09;;;;;;;11.90;6.75;;;22.30;43.60;;;;;;4167435;28;20057;-56
2021/09/11 01:20:11;;;;;;;12.88;6.75;;;22.30;43.60;;;;;;4167325;28;20069;-57
2021/09/11 01:22:15;;;;;;;13.60;6.13;;;22.30;43.40;;;;;;4167244;28;20108;-57
2021/09/11 01:24:17;;;;;;;12.93;6.82;;;22.30;43.40;;;;;;4167230;28;20101;-57
2021/09/11 01:26:19;;;;;;;9.93;6.45;;;22.30;43.60;;;;;;4167227;28;20068;-57
2021/09/11 01:28:22;;;;;;;10.18;6.55;;;22.30;43.60;;;;;;4167220;28;20056;-57
2021/09/11 01:30:24;;;;;;;11.15;7.05;;;22.30;43.50;;;;;;4167032;28;20097;-58
2021/09/11 01:32:27;;;;;;;9.85;6.50;;;22.30;43.50;;;;;;4167200;28;20077;-58
2021/09/11 01:34:30;;;;;;;11.88;7.20;;;22.20;43.50;;;;;;4167091;28;20049;-57
2021/09/11 01:36:32;;;;;;;12.13;6.63;;;22.30;43.40;;;;;;4167083;28;20056;-57
2021/09/11 01:38:34;;;;;;;11.45;6.60;;;22.20;43.30;;;;;;4167167;28;20144;-57
2021/09/11 01:40:36;;;;;;;10.10;6.63;;;22.20;43.50;;;;;;4166263;28;20114;-57
2021/09/11 01:42:38;;;;;;;11.27;6.85;;;22.30;43.50;;;;;;4166842;28;20097;-57
2021/09/11 01:44:46;;;;;;;12.40;6.95;;;22.20;43.40;;;;;;4166990;28;20117;-58
2021/09/11 01:46:49;;;;;;;13.73;6.90;;;22.30;43.50;;;;;;4166849;28;20076;-57
2021/09/11 01:48:51;;;;;;;10.68;6.60;;;22.30;43.60;;;;;;4166803;28;20042;-57
2021/09/11 01:50:53;;;;;;;13.98;6.13;;;22.30;43.60;;;;;;4165742;28;20086;-57
2021/09/11 01:52:55;;;;;;;9.63;6.65;;;22.30;43.40;;;;;;4166849;28;20045;-57
2021/09/11 01:54:57;;;;;;;13.43;6.75;;;22.20;43.60;;;;;;4166866;28;20069;-57
2021/09/11 01:56:59;;;;;;;12.55;6.40;;;22.20;43.50;;;;;;4166598;28;20041;-56
2021/09/11 01:59:01;;;;;;;12.98;6.78;;;22.20;43.50;;;;;;4166718;28;20124;-57
2021/09/11 02:01:03;;;;;;;11.27;6.43;;;22.20;43.60;;;;;;4166494;28;20046;-57
2021/09/11 02:03:06;;;;;;;10.77;6.85;;;22.30;43.60;;;;;;4166779;28;20042;-56
2021/09/11 02:05:10;;;;;;;10.55;7.22;;;22.20;43.50;;;;;;4166790;28;20072;-57
2021/09/11 02:07:12;;;;;;;12.77;6.28;;;22.20;43.40;;;;;;4166712;28;20049;-58
2021/09/11 02:09:14;;;;;;;8.23;5.95;;;22.20;43.50;;;;;;4166402;28;20038;-57
2021/09/11 02:11:16;;;;;;;9.00;6.00;;;22.20;43.50;;;;;;4166466;28;20069;-56
2021/09/11 02:13:18;;;;;;;10.75;5.95;;;22.20;43.70;;;;;;4166448;28;20046;-57
2021/09/11 02:15:20;;;;;;;10.02;6.20;;;22.30;43.40;;;;;;4166477;28;20038;-57
2021/09/11 02:17:22;;;;;;;13.02;6.85;;;22.20;43.40;;;;;;4166478;28;20066;-57
2021/09/11 02:19:24;;;;;;;10.10;6.07;;;22.20;43.70;;;;;;4165560;28;20042;-57
2021/09/11 02:21:26;;;;;;;10.18;6.78;;;22.20;43.50;;;;;;4166300;28;20045;-58
2021/09/11 02:23:28;;;;;;;12.57;6.15;;;22.20;43.50;;;;;;4166288;28;20069;-57
2021/09/11 02:25:30;;;;;;;8.10;6.00;;;22.20;43.50;;;;;;4166389;28;20094;-57
2021/09/11 02:27:32;;;;;;;11.18;6.55;;;22.20;43.60;;;;;;4166409;28;20042;-58
2021/09/11 02:29:35;;;;;;;11.40;6.13;;;22.20;43.40;;;;;;4166250;28;20065;-57
2021/09/11 02:31:37;;;;;;;14.57;6.78;;;22.20;43.50;;;;;;4166228;28;20034;-58
2021/09/11 02:33:39;;;;;;;10.02;5.90;;;22.20;43.50;;;;;;4166113;28;20093;-57
2021/09/11 02:35:41;;;;;;;9.15;6.15;;;22.20;43.40;;;;;;4166122;28;20043;-57
2021/09/11 02:37:43;;;;;;;11.80;6.22;;;22.20;43.40;;;;;;4166094;28;20049;-59
2021/09/11 02:39:45;;;;;;;11.70;6.28;;;22.20;43.50;;;;;;4166184;28;20050;-57
2021/09/11 02:41:47;;;;;;;8.77;6.13;;;22.20;43.50;;;;;;4165930;28;20102;-58
2021/09/11 02:43:49;;;;;;;9.50;6.40;;;22.10;43.40;;;;;;4166063;28;20045;-58
2021/09/11 02:45:51;;;;;;;9.35;6.05;;;22.20;43.40;;;;;;4166082;28;20041;-57
2021/09/11 02:47:53;;;;;;;11.85;6.07;;;22.20;43.40;;;;;;4166124;28;20033;-57
2021/09/11 02:49:55;;;;;;;14.98;6.25;;;22.20;43.50;;;;;;4166006;28;20061;-57
2021/09/11 02:51:57;;;;;;;8.95;5.28;;;22.20;43.50;;;;;;4165157;28;20049;-58
2021/09/11 02:54:00;;;;;;;10.05;6.95;;;22.20;43.40;;;;;;4165815;28;20050;-58
2021/09/11 02:56:02;;;;;;;10.32;6.13;;;22.10;43.40;;;;;;4165760;28;20056;-58
2021/09/11 02:58:04;;;;;;;10.95;5.38;;;22.20;43.40;;;;;;4165811;28;20080;-57
2021/09/11 03:00:07;;;;;;;8.38;5.45;;;22.20;43.40;;;;;;4165985;28;20461;-57
2021/09/11 03:02:08;;;;;;;8.70;5.22;;;22.10;43.50;;;;;;4165543;28;20124;-57
2021/09/11 03:04:11;;;;;;;12.38;5.30;;;22.10;43.40;;;;;;4165841;28;20042;-57
2021/09/11 03:06:13;;;;;;;8.00;5.32;;;22.10;43.40;;;;;;4165804;28;20077;-57
2021/09/11 03:08:15;;;;;;;9.50;4.95;;;22.10;43.40;;;;;;4165691;28;20099;-57
2021/09/11 03:10:21;;;;;;;8.50;5.28;;;22.10;43.40;;;;;;4165669;28;20462;-57
2021/09/11 03:12:22;;;;;;;12.00;5.85;;;22.10;43.30;;;;;;4165757;28;20097;-57
2021/09/11 03:14:24;;;;;;;8.23;5.53;;;22.10;43.40;;;;;;4165763;28;20060;-56
2021/09/11 03:16:26;;;;;;;7.85;5.45;;;22.10;43.50;;;;;;4164766;28;20048;-57
2021/09/11 03:18:29;;;;;;;12.50;5.20;;;22.10;43.40;;;;;;4165445;28;20244;-57
2021/09/11 03:20:30;;;;;;;11.40;5.60;;;22.10;43.60;;;;;;4165503;28;20046;-57
2021/09/11 03:22:33;;;;;;;10.98;5.65;;;22.10;43.40;;;;;;4165482;28;20080;-57
2021/09/11 03:24:34;;;;;;;11.85;5.28;;;22.10;43.30;;;;;;4165718;28;20161;-57
2021/09/11 03:26:37;;;;;;;12.68;6.13;;;22.10;43.40;;;;;;4165471;28;20098;-56
2021/09/11 03:28:39;;;;;;;9.88;5.57;;;22.10;43.30;;;;;;4165453;28;20071;-57
2021/09/11 03:30:41;;;;;;;8.25;5.22;;;22.10;43.30;;;;;;4165439;28;20038;-57
2021/09/11 03:32:43;;;;;;;11.38;5.60;;;22.10;43.40;;;;;;4165351;28;20060;-57
2021/09/11 03:34:45;;;;;;;8.50;5.30;;;22.00;43.40;;;;;;4165563;28;20076;-57
2021/09/11 03:36:47;;;;;;;12.27;5.43;;;22.10;43.40;;;;;;4164476;28;20443;-56
2021/09/11 03:38:49;;;;;;;8.50;5.60;;;22.00;43.40;;;;;;4165323;28;20105;-56
2021/09/11 03:40:51;;;;;;;11.15;5.93;;;22.10;43.30;;;;;;4165343;28;20076;-57
2021/09/11 03:42:53;;;;;;;8.43;5.40;;;22.00;43.20;;;;;;4165262;28;20064;-58
2021/09/11 03:44:55;;;;;;;9.27;5.13;;;22.00;43.40;;;;;;4165592;28;20045;-57
2021/09/11 03:46:57;;;;;;;8.88;5.28;;;22.10;43.30;;;;;;4165452;28;20038;-57
2021/09/11 03:48:59;;;;;;;9.90;5.32;;;22.00;43.30;;;;;;4165293;28;20046;-58
2021/09/11 03:51:02;;;;;;;7.15;5.13;;;22.00;43.20;;;;;;4165170;28;20125;-57
2021/09/11 03:53:04;;;;;;;10.88;5.68;;;22.00;43.30;;;;;;4165231;28;20106;-58
2021/09/11 03:55:07;;;;;;;10.35;5.18;;;22.10;43.30;;;;;;4165238;28;20056;-57
2021/09/11 03:57:09;;;;;;;9.70;5.22;;;22.00;43.10;;;;;;4165385;28;20224;-57
2021/09/11 03:59:11;;;;;;;12.75;6.03;;;22.00;43.30;;;;;;4165165;28;20097;-58
2021/09/11 04:01:12;;;;;;;13.10;5.60;;;22.00;43.30;;;;;;4165112;28;20439;-57
2021/09/11 04:03:15;;;;;;;8.90;6.38;;;22.00;43.30;;;;;;4165275;28;20069;-58
2021/09/11 04:05:17;;;;;;;12.38;5.93;;;22.00;43.20;;;;;;4168373;28;20049;-56
2021/09/11 04:07:19;;;;;;;13.27;6.72;;;22.00;43.40;;;;;;4168682;28;20054;-57
2021/09/11 04:09:21;;;;;;;10.98;6.13;;;22.10;43.30;;;;;;4168522;28;20069;-57
2021/09/11 04:11:23;;;;;;;11.48;7.00;;;22.00;43.30;;;;;;4168362;28;20102;-58
2021/09/11 04:13:26;;;;;;;10.57;6.78;;;22.00;43.20;;;;;;4168346;28;20106;-57
2021/09/11 04:15:28;;;;;;;12.05;6.63;;;22.10;43.30;;;;;;4168348;28;20490;-57
2021/09/11 04:17:30;;;;;;;13.82;7.47;;;22.10;43.20;;;;;;4168414;28;20065;-57
2021/09/11 04:19:32;;;;;;;15.80;6.95;;;22.00;43.20;;;;;;4168475;28;20106;-57
2021/09/11 04:21:34;;;;;;;13.95;7.15;;;22.00;43.20;;;;;;4168163;28;20145;-57
2021/09/11 04:23:35;;;;;;;14.82;7.57;;;22.00;43.30;;;;;;4167896;28;20042;-57
2021/09/11 04:25:37;;;;;;;16.30;7.43;;;22.00;43.20;;;;;;4168233;28;20066;-57
2021/09/11 04:27:40;;;;;;;13.35;7.03;;;22.00;43.30;;;;;;4168143;28;20046;-56
2021/09/11 04:29:42;;;;;;;15.65;7.95;;;22.00;43.30;;;;;;4168208;28;20042;-57
2021/09/11 04:31:44;;;;;;;22.20;7.65;;;22.00;43.20;;;;;;4168109;28;20042;-57
2021/09/11 04:33:46;;;;;;;12.93;6.85;;;22.00;43.40;;;;;;4167900;28;20042;-57
2021/09/11 04:35:48;;;;;;;17.02;7.47;;;22.00;43.30;;;;;;4167913;28;20041;-57
2021/09/11 04:37:50;;;;;;;10.55;7.85;;;22.10;43.20;;;;;;4167989;28;20042;-57
2021/09/11 04:39:53;;;;;;;13.23;6.75;;;22.10;43.20;;;;;;4167258;28;20368;-57
2021/09/11 04:41:55;;;;;;;16.98;7.07;;;22.10;43.10;;;;;;4167933;28;20093;-57
2021/09/11 04:43:57;;;;;;;12.80;7.75;;;22.00;43.10;;;;;;4167013;28;20102;-57
2021/09/11 04:46:00;;;;;;;10.77;6.60;;;22.10;43.10;;;;;;4167844;28;20094;-57
2021/09/11 04:48:02;;;;;;;11.70;7.05;;;22.10;43.20;;;;;;4167827;28;20071;-58
2021/09/11 04:50:05;;;;;;;11.52;7.00;;;22.00;43.10;;;;;;4166932;28;20046;-57
2021/09/11 04:52:07;;;;;;;13.13;7.50;;;22.00;43.20;;;;;;4167686;28;20110;-57
2021/09/11 04:54:09;;;;;;;11.13;6.28;;;22.00;43.20;;;;;;4167833;28;20042;-57
2021/09/11 04:56:11;;;;;;;15.90;7.72;;;22.00;43.10;;;;;;4167730;28;20061;-57
2021/09/11 04:58:13;;;;;;;10.65;6.38;;;22.00;43.10;;;;;;4167647;28;20042;-58
2021/09/11 05:00:15;;;;;;;11.93;6.55;;;22.10;43.20;;;;;;4167564;28;20042;-58
2021/09/11 05:02:17;;;;;;;14.00;7.00;;;22.10;43.10;;;;;;4167591;28;20077;-57
2021/09/11 05:04:19;;;;;;;10.95;6.93;;;22.00;43.10;;;;;;4167686;28;20076;-57
2021/09/11 05:06:22;;;;;;;10.85;6.88;;;22.10;43.10;;;;;;4167544;28;20093;-57
2021/09/11 05:08:24;;;;;;;15.45;6.18;;;22.10;43.20;;;;;;4167582;28;20458;-58
2021/09/11 05:10:27;;;;;;;14.23;6.53;;;22.10;43.20;;;;;;4167427;28;20038;-56
2021/09/11 05:12:29;;;;;;;10.57;7.03;;;22.10;43.30;;;;;;4167521;28;20042;-57
2021/09/11 05:14:31;;;;;;;9.75;5.78;;;22.10;43.30;;;;;;4167115;28;20061;-57
2021/09/11 05:16:33;;;;;;;11.73;5.90;;;22.10;43.40;;;;;;4167543;28;20046;-57
2021/09/11 05:18:37;;;;;;;12.27;6.05;;;22.10;43.30;;;;;;4167379;28;20042;-56
2021/09/11 05:20:39;;;;;;;12.10;6.13;;;22.10;43.30;;;;;;4167300;28;20045;-56
2021/09/11 05:22:41;;;;;;;13.90;6.10;;;22.10;43.40;;;;;;4167146;28;20042;-56
2021/09/11 05:24:43;;;;;;;12.40;6.22;;;22.10;43.30;;;;;;4167238;28;20065;-58
2021/09/11 05:26:45;;;;;;;9.60;5.28;;;22.10;43.20;;;;;;4167332;28;20042;-58
2021/09/11 05:28:47;;;;;;;8.38;5.57;;;22.10;43.40;;;;;;4167260;28;20045;-58
2021/09/11 05:30:49;;;;;;;9.55;5.57;;;22.10;43.40;;;;;;4167272;28;20049;-58
2021/09/11 05:32:51;;;;;;;10.52;6.18;;;22.10;43.30;;;;;;4167089;28;20077;-57
2021/09/11 05:34:54;;;;;;;9.88;5.40;;;22.10;43.40;;;;;;4167085;28;20042;-58
2021/09/11 05:36:56;;;;;;;9.75;4.72;;;22.10;43.50;;;;;;4167227;28;20042;-56
2021/09/11 05:38:58;;;;;;;8.60;5.10;;;22.10;43.50;;;;;;4167187;28;20117;-59
2021/09/11 05:41:00;;;;;;;10.68;5.53;;;22.00;43.50;;;;;;4166820;28;20056;-59
2021/09/11 05:43:02;;;;;;;12.15;5.72;;;22.10;43.60;;;;;;4166920;28;20045;-59
2021/09/11 05:45:05;;;;;;;10.70;5.22;;;22.10;43.60;;;;;;4166869;28;20093;-58
2021/09/11 05:47:07;;;;;;;10.70;5.50;;;22.00;43.60;;;;;;4166849;28;20042;-58
2021/09/11 05:49:09;;;;;;;8.52;5.57;;;22.00;43.70;;;;;;4167017;28;20050;-59
2021/09/11 05:51:11;;;;;;;9.90;4.90;;;22.10;43.70;;;;;;4166726;28;20046;-59
2021/09/11 05:53:14;;;;;;;9.75;5.22;;;22.10;43.70;;;;;;4166851;28;20041;-58
2021/09/11 05:55:16;;;;;;;9.13;5.05;;;22.10;43.80;;;;;;4166656;28;20042;-58
2021/09/11 05:57:18;;;;;;;12.05;5.65;;;22.10;43.80;;;;;;4166834;28;20046;-59
2021/09/11 05:59:20;;;;;;;8.32;4.93;;;22.10;43.70;;;;;;4166801;28;20108;-58
2021/09/11 06:01:22;;;;;;;10.63;5.90;;;22.10;43.80;;;;;;4166849;28;20102;-58
2021/09/11 06:03:24;;;;;;;11.43;5.70;;;22.10;44.00;;;;;;4166465;28;20093;-58
2021/09/11 06:05:26;;;;;;;13.43;5.07;;;22.10;44.00;;;;;;4166561;28;20042;-58
2021/09/11 06:07:28;;;;;;;12.60;5.22;;;22.10;44.10;;;;;;4166541;28;20041;-56
2021/09/11 06:09:30;;;;;;;27.58;10.63;;;22.10;44.50;;;;;;4166501;28;20101;-53
2021/09/11 06:11:32;;;;;;;28.30;10.40;;;22.20;48.10;;;;;;4166710;28;20069;-51
2021/09/11 06:13:35;;;;;;;92.00;13.90;;;22.10;48.80;;;;;;4165538;28;20041;-49
2021/09/11 06:15:37;;;;;;;37.30;16.27;;;22.00;50.30;;;;;;4166438;28;20053;-48
2021/09/11 06:17:39;;;;;;;111.40;78.32;;;21.90;49.00;;;;;;4166315;28;20065;-49
2021/09/11 06:19:41;;;;;;;53.15;29.50;;;21.80;47.70;;;;;;4166684;28;20046;-56
2021/09/11 06:21:43;;;;;;;47.17;23.17;;;21.70;47.50;;;;;;4167080;28;20475;-57
2021/09/11 06:23:45;;;;;;;43.55;21.65;;;21.60;47.50;;;;;;4166187;28;20052;-52
2021/09/11 06:25:47;;;;;;;38.83;19.58;;;21.70;48.70;;;;;;4165920;28;20145;-50
2021/09/11 06:27:54;;;;;;;24.88;13.85;;;21.70;47.30;;;;;;4165785;28;20061;-53
2021/09/11 06:29:56;;;;;;;25.10;14.02;;;21.70;46.90;;;;;;4166274;28;20065;-52
2021/09/11 06:31:58;;;;;;;18.38;10.05;;;21.70;46.80;;;;;;4166260;28;20048;-50
2021/09/11 06:34:00;;;;;;;21.48;11.30;;;21.60;45.70;;;;;;4166144;28;20105;-57
2021/09/11 06:36:03;;;;;;;47.88;11.48;;;21.50;46.80;;;;;;4167008;28;20097;-58
2021/09/11 06:38:05;;;;;;;22.17;8.65;;;21.60;46.00;;;;;;4166915;28;20073;-55
2021/09/11 06:40:07;;;;;;;36.25;10.80;;;21.60;46.20;;;;;;4165664;28;20072;-51
2021/09/11 06:42:09;;;;;;;61.67;30.20;;;21.60;46.90;;;;;;4165499;28;20046;-53
2021/09/11 06:44:11;;;;;;;39.05;22.92;;;21.60;45.40;;;;;;4166181;28;20103;-53
2021/09/11 06:46:13;;;;;;;27.75;16.35;;;21.70;45.60;;;;;;4166303;28;20056;-56
2021/09/11 06:48:15;;;;;;;25.27;14.45;;;21.70;44.90;;;;;;4165970;28;20038;-57
2021/09/11 06:50:17;;;;;;;32.70;14.43;;;21.60;44.90;;;;;;4165898;28;20072;-56
2021/09/11 06:52:20;;;;;;;19.38;10.77;;;21.70;45.90;;;;;;4165763;28;20102;-56
2021/09/11 06:54:22;;;;;;;22.30;9.55;;;21.70;44.90;;;;;;4165845;28;20101;-51
2021/09/11 06:56:24;;;;;;;21.58;8.50;;;21.70;44.30;;;;;;4165613;28;20077;-53
2021/09/11 06:58:26;;;;;;;28.08;16.02;;;21.70;44.00;;;;;;4165773;28;20052;-51
2021/09/11 07:00:29;;;;;;;53.83;41.75;;;21.70;44.20;;;;;;4165812;28;20049;-50
2021/09/11 07:02:32;;;;;;;50.42;35.40;;;21.70;43.60;;;;;;4165572;28;20050;-52
2021/09/11 07:04:34;;;;;;;33.65;25.80;;;21.70;44.70;;;;;;4165609;28;20042;-52
2021/09/11 07:06:36;;;;;;;24.55;17.67;;;21.80;43.30;;;;;;4165678;28;20113;-51
2021/09/11 07:08:38;;;;;;;21.17;12.05;;;21.70;42.60;;;;;;4165673;28;20046;-52
2021/09/11 07:10:43;;;;;;;17.98;11.27;;;21.70;42.40;;;;;;4164858;28;20052;-50
2021/09/11 07:12:44;;;;;;;19.55;13.45;;;21.80;42.40;;;;;;4165702;28;20042;-54
2021/09/11 07:14:48;;;;;;;19.48;12.05;;;21.80;42.40;;;;;;4165463;28;20042;-52
2021/09/11 07:16:50;;;;;;;19.02;10.80;;;21.80;42.70;;;;;;4165691;28;20097;-53
2021/09/11 07:18:52;;;;;;;14.13;9.60;;;21.80;42.20;;;;;;4165462;28;20044;-55
2021/09/11 07:20:54;;;;;;;15.27;8.90;;;21.80;42.70;;;;;;4165301;28;20064;-53
2021/09/11 07:22:56;;;;;;;21.85;10.68;;;21.80;42.40;;;;;;4165585;28;20046;-48
2021/09/11 07:24:58;;;;;;;23.10;10.82;;;21.80;43.00;;;;;;4165434;28;20041;-49
2021/09/11 07:27:00;;;;;;;20.08;10.45;;;21.80;42.80;;;;;;4164581;28;20042;-52
2021/09/11 07:29:02;;;;;;;18.77;9.93;;;21.80;42.70;;;;;;4165254;28;20533;-52
2021/09/11 07:31:04;;;;;;;21.20;8.60;;;21.80;42.60;;;;;;4165359;28;20045;-54
2021/09/11 07:33:06;;;;;;;20.17;9.10;;;21.90;42.70;;;;;;4165397;28;20046;-57
2021/09/11 07:35:09;;;;;;;16.60;7.90;;;21.90;41.90;;;;;;4165314;28;20056;-54
2021/09/11 07:37:11;;;;;;;19.00;8.52;;;21.80;42.10;;;;;;4165308;28;20113;-50
2021/09/11 07:39:13;;;;;;;14.95;8.73;;;21.90;42.70;;;;;;4165328;28;20109;-50
2021/09/11 07:41:16;;;;;;;19.73;8.15;;;21.90;43.20;;;;;;4165264;28;20098;-49
2021/09/11 07:43:18;;;;;;;17.45;10.85;;;21.90;42.60;;;;;;4165399;28;20159;-53
2021/09/11 07:45:20;;;;;;;31.55;20.00;;;21.90;43.60;;;;;;4165424;28;20065;-52
2021/09/11 07:47:22;;;;;;;30.92;18.98;;;21.80;42.50;;;;;;4165192;28;20076;-49
2021/09/11 07:49:24;;;;;;;20.60;16.70;;;21.90;43.00;;;;;;4165188;28;20042;-51
2021/09/11 07:51:26;;;;;;;23.75;16.77;;;21.90;42.80;;;;;;4165020;28;20077;-50
2021/09/11 07:53:28;;;;;;;24.38;14.25;;;21.90;43.20;;;;;;4165155;28;20446;-52
2021/09/11 07:55:31;;;;;;;23.30;13.32;;;21.90;42.80;;;;;;4165428;28;20069;-51
2021/09/11 07:57:33;;;;;;;22.73;14.88;;;21.90;44.00;;;;;;4165285;28;20105;-48
2021/09/11 07:59:35;;;;;;;24.38;11.68;;;21.90;45.40;;;;;;4164139;28;20057;-50
2021/09/11 08:01:37;;;;;;;22.50;10.15;;;21.90;43.30;;;;;;4165166;28;20152;-51
2021/09/11 08:03:40;;;;;;;20.27;9.40;;;21.90;42.90;;;;;;4164855;28;20132;-53
2021/09/11 08:05:42;;;;;;;18.73;10.18;;;21.90;42.80;;;;;;4165243;28;20116;-49
2021/09/11 08:07:44;;;;;;;14.90;8.45;;;21.90;43.60;;;;;;4164296;28;20110;-49
2021/09/11 08:09:46;;;;;;;18.38;9.65;;;22.00;43.20;;;;;;4165036;28;20094;-50
2021/09/11 08:11:48;;;;;;;17.23;7.93;;;22.00;43.60;;;;;;4165224;28;20068;-52
2021/09/11 08:13:50;;;;;;;16.83;8.70;;;22.00;43.90;;;;;;4164915;28;20073;-51
2021/09/11 08:15:53;;;;;;;17.52;7.55;;;22.00;43.60;;;;;;4164903;28;20054;-50
2021/09/11 08:17:55;;;;;;;23.20;8.52;;;22.00;43.30;;;;;;4165266;28;20049;-49
2021/09/11 08:19:57;;;;;;;17.25;8.13;;;22.00;43.70;;;;;;4165241;28;20042;-48
2021/09/11 08:21:59;;;;;;;18.70;7.78;;;22.00;43.60;;;;;;4165111;28;20045;-50
2021/09/11 08:24:01;;;;;;;28.10;7.78;;;22.00;44.10;;;;;;4164980;28;20061;-51
2021/09/11 08:26:04;;;;;;;22.10;8.20;;;22.10;44.40;;;;;;4165083;28;20080;-52
2021/09/11 08:28:06;;;;;;;19.83;7.38;;;22.00;44.30;;;;;;4165118;28;20041;-51
2021/09/11 08:30:09;;;;;;;21.95;7.90;;;22.00;44.20;;;;;;4165052;28;20041;-47
2021/09/11 08:32:11;;;;;;;16.33;8.07;;;22.10;43.90;;;;;;4164968;28;20101;-52
2021/09/11 08:34:14;;;;;;;17.48;7.38;;;22.00;44.00;;;;;;4164666;28;20076;-50
2021/09/11 08:36:16;;;;;;;23.40;7.10;;;22.10;43.80;;;;;;4164724;28;20048;-48
2021/09/11 08:38:18;;;;;;;13.52;7.18;;;22.10;43.70;;;;;;4164774;28;20046;-52
2021/09/11 08:40:21;;;;;;;13.23;7.13;;;22.10;44.10;;;;;;4165071;28;20097;-52
2021/09/11 08:42:24;;;;;;;15.23;7.95;;;22.10;43.90;;;;;;4164124;28;20047;-52
2021/09/11 08:44:26;;;;;;;12.57;8.05;;;22.10;44.00;;;;;;4164838;28;20097;-52
2021/09/11 08:46:29;;;;;;;15.13;7.88;;;22.10;44.30;;;;;;4164907;28;20097;-52
2021/09/11 08:48:31;;;;;;;13.48;7.40;;;22.10;43.90;;;;;;4164736;28;20060;-49
2021/09/11 08:50:33;;;;;;;14.35;7.63;;;22.20;43.90;;;;;;4166748;28;20042;-53
2021/09/11 08:52:35;;;;;;;10.25;6.38;;;22.10;43.60;;;;;;4167860;28;20046;-53
2021/09/11 08:54:37;;;;;;;11.75;7.25;;;22.10;44.00;;;;;;4167956;28;20097;-51
2021/09/11 08:56:44;;;;;;;16.75;7.70;;;22.20;43.80;;;;;;4167516;28;20042;-53
2021/09/11 08:58:46;;;;;;;12.75;7.28;;;22.10;44.00;;;;;;4167631;28;20061;-54
2021/09/11 09:00:48;;;;;;;13.35;7.07;;;22.10;43.80;;;;;;4166842;28;20049;-54
2021/09/11 09:02:50;;;;;;;14.45;6.47;;;22.10;43.80;;;;;;4167505;28;20068;-50
2021/09/11 09:04:56;;;;;;;14.50;6.93;;;22.10;44.00;;;;;;4167506;28;20065;-52
2021/09/11 09:06:58;;;;;;;15.77;7.70;;;22.10;44.10;;;;;;4167670;28;20175;-49
2021/09/11 09:09:10;;;;;;;17.17;7.35;;;22.10;43.90;;;;;;4167646;28;20110;-51
2021/09/11 09:11:23;;;;;;;19.05;7.25;;;22.20;44.40;;;;;;4167425;28;20046;-53
2021/09/11 09:13:25;;;;;;;14.40;8.18;;;22.20;44.50;;;;;;4167469;28;20044;-50
2021/09/11 09:15:27;;;;;;;16.23;7.22;;;22.20;44.40;;;;;;4166384;28;20198;-51
2021/09/11 09:17:42;;;;;;;11.87;7.50;;;22.20;44.60;;;;;;4167287;28;20061;-52
2021/09/11 09:19:44;;;;;;;17.27;6.82;;;22.20;45.90;;;;;;4167215;28;20105;-53
2021/09/11 09:21:48;;;;;;;13.60;7.18;;;22.20;46.60;;;;;;4167327;28;20097;-51
2021/09/11 09:23:56;;;;;;;11.35;6.78;;;22.20;46.10;;;;;;4167175;28;20042;-49
2021/09/11 09:25:58;;;;;;;8.93;6.57;;;22.20;46.50;;;;;;4167161;28;20049;-47
2021/09/11 09:28:12;;;;;;;12.38;6.75;;;22.20;46.20;;;;;;4167193;28;20061;-51
2021/09/11 09:30:17;;;;;;;14.55;7.57;;;22.30;46.50;;;;;;4167133;28;20044;-47
2021/09/11 09:32:24;;;;;;;11.07;6.63;;;22.30;47.10;;;;;;4167082;28;20105;-49
2021/09/11 09:34:45;;;;;;;11.85;7.15;;;22.30;47.90;;;;;;4166986;28;20057;-46
2021/09/11 09:36:47;;;;;;;15.18;7.32;;;22.30;47.40;;;;;;4166923;28;20076;-49
2021/09/11 09:39:02;;;;;;;12.57;6.95;;;22.30;47.20;;;;;;4166826;28;20101;-48
2021/09/11 09:41:11;;;;;;;16.88;7.95;;;22.30;46.90;;;;;;4166881;28;20046;-47
2021/09/11 09:43:28;;;;;;;25.05;7.90;;;22.30;46.90;;;;;;4166534;28;20372;-51
2021/09/11 09:45:31;;;;;;;20.15;8.02;;;22.30;48.40;;;;;;4163852;28;20033;-51
2021/09/11 09:47:34;;;;;;;21.83;7.93;;;22.30;48.10;;;;;;4165469;28;20145;-51
2021/09/11 09:49:36;;;;;;;23.77;8.10;;;22.30;48.30;;;;;;4166348;28;20328;-52
2021/09/11 09:51:38;;;;;;;23.77;7.40;;;22.30;47.70;;;;;;4166543;28;20050;-49
2021/09/11 09:53:43;;;;;;;15.18;7.35;;;22.30;47.50;;;;;;4166525;28;20056;-48
2021/09/11 09:55:45;;;;;;;15.13;8.38;;;22.30;47.70;;;;;;4166616;28;20046;-50
2021/09/11 09:57:47;;;;;;;13.57;7.78;;;22.40;49.20;;;;;;3817780;28;10000372;-47
2021/09/11 09:59:51;;;;;;;19.08;7.53;;;22.40;49.70;;;;;;4166120;28;20034;-49
2021/09/11 10:01:53;;;;;;;21.50;9.32;;;22.40;49.70;;;;;;4164993;28;20094;-51
2021/09/11 10:03:56;;;;;;;18.95;8.00;;;22.30;49.90;;;;;;4166042;28;20042;-50
2021/09/11 10:06:06;;;;;;;16.00;8.27;;;22.40;48.10;;;;;;4166702;28;20069;-51
2021/09/11 10:08:11;;;;;;;21.92;8.75;;;22.40;49.00;;;;;;4165159;28;20041;-51
2021/09/11 10:10:13;;;;;;;21.77;9.27;;;22.40;48.50;;;;;;4165307;28;20426;-54
2021/09/11 10:12:37;;;;;;;14.52;7.72;;;22.40;49.60;;;;;;4165040;28;20049;-54
2021/09/11 10:14:39;;;;;;;19.42;7.60;;;22.50;48.10;;;;;;4164953;28;20042;-56
2021/09/11 10:16:43;;;;;;;18.88;8.52;;;22.50;48.40;;;;;;4164954;28;20105;-54
2021/09/11 10:18:45;;;;;;;18.80;10.25;;;22.50;48.30;;;;;;4165213;28;20048;-52
2021/09/11 10:21:11;;;;;;;18.88;8.85;;;22.50;51.10;;;;;;4165211;28;20106;-48
2021/09/11 10:23:14;;;;;;;23.58;10.85;;;22.50;51.60;;;;;;4165254;28;20060;-47
2021/09/11 10:25:40;;;;;;;19.83;12.55;;;22.60;50.30;;;;;;4165620;28;20101;-54
2021/09/11 10:27:43;;;;;;;19.98;14.13;;;22.50;51.90;;;;;;4165205;28;20121;-51
2021/09/11 10:29:51;;;;;;;20.30;13.50;;;22.50;52.70;;;;;;4164151;28;20097;-48